Time;durP1;ratioP1;P1;durP2;ratioP2;P2;SDS_P1;SDS_P2;PMS_P1;PMS_P2;Temp;Humidity;BMP_temperature;BMP_pressure;BME280_temperature;BME280_humidity;BME280_pressure;Samples;Min_cycle;Max_cycle;Signal;HPM_P1;HPM_P2
2023/01/11 00:00:48;;;;;;;10.82;1.77;;;;;;;12.93;100.00;101023.19;2094864;28;20136;-75
2023/01/11 00:02:10;;;;;;;8.48;1.30;;;;;;;12.91;100.00;101033.75;2086736;28;20037;-76
2023/01/11 00:03:34;;;;;;;11.18;1.70;;;;;;;12.90;100.00;101031.09;2086374;28;20148;-76
2023/01/11 00:04:55;;;;;;;14.27;2.67;;;;;;;12.88;100.00;101032.81;2086856;28;20041;-75
2023/01/11 00:06:17;;;;;;;20.30;2.10;;;;;;;12.87;100.00;101037.22;2092588;28;20106;-76
2023/01/11 00:07:39;;;;;;;9.75;1.38;;;;;;;12.86;100.00;101045.19;2095786;28;20060;-75
2023/01/11 00:09:02;;;;;;;15.80;2.17;;;;;;;12.84;100.00;101047.81;2088872;28;20121;-75
2023/01/11 00:10:23;;;;;;;14.40;2.38;;;;;;;12.81;100.00;101055.72;2086494;28;20787;-75
2023/01/11 00:11:45;;;;;;;16.77;2.50;;;;;;;12.78;100.00;101055.69;2091932;28;20067;-75
2023/01/11 00:13:07;;;;;;;11.65;1.80;;;;;;;12.76;100.00;101062.72;2094004;28;20101;-75
2023/01/11 00:14:29;;;;;;;14.38;2.42;;;;;;;12.75;100.00;101059.19;2096854;28;20048;-75
2023/01/11 00:15:53;;;;;;;10.52;1.58;;;;;;;12.76;100.00;101070.69;2086158;28;20049;-75
2023/01/11 00:17:14;;;;;;;12.05;1.65;;;;;;;12.76;100.00;101081.28;2078489;28;20049;-76
2023/01/11 00:18:38;;;;;;;18.50;2.60;;;;;;;12.74;100.00;101078.59;2089959;28;20043;-75
2023/01/11 00:20:00;;;;;;;17.98;2.25;;;;;;;12.75;100.00;101068.91;2093779;28;20048;-75
2023/01/11 00:21:25;;;;;;;14.40;2.40;;;;;;;12.75;100.00;101084.78;2086424;28;20072;-75
2023/01/11 00:22:46;;;;;;;18.48;3.88;;;;;;;12.72;100.00;101085.66;2083222;28;20072;-76
2023/01/11 00:24:09;;;;;;;16.80;2.67;;;;;;;12.71;100.00;101067.97;2083595;28;20106;-76
2023/01/11 00:25:31;;;;;;;13.20;1.65;;;;;;;12.72;100.00;101064.47;2092252;28;20051;-76
2023/01/11 00:26:54;;;;;;;12.15;2.67;;;;;;;12.70;100.00;101058.25;2094641;28;20409;-77
2023/01/11 00:28:16;;;;;;;14.80;2.53;;;;;;;12.68;100.00;101038.78;2087493;28;20053;-77
2023/01/11 00:29:37;;;;;;;12.02;2.10;;;;;;;12.68;100.00;101025.56;2086715;28;20053;-77
2023/01/11 00:31:02;;;;;;;11.05;1.50;;;;;;;12.67;100.00;101015.81;2082075;28;20457;-76
2023/01/11 00:32:23;;;;;;;8.07;1.48;;;;;;;12.68;100.00;101007.00;2084038;28;20041;-77
2023/01/11 00:33:46;;;;;;;14.80;1.90;;;;;;;12.67;100.00;101004.34;2088845;28;20476;-76
2023/01/11 00:35:08;;;;;;;11.63;1.65;;;;;;;12.66;100.00;101006.13;2096368;28;20048;-76
2023/01/11 00:36:30;;;;;;;11.98;1.52;;;;;;;12.66;100.00;101006.13;2094857;28;20585;-76
2023/01/11 00:37:52;;;;;;;13.45;1.80;;;;;;;12.66;100.00;101006.13;2089778;28;20378;-77
2023/01/11 00:39:15;;;;;;;16.52;2.00;;;;;;;12.68;100.00;101012.31;2097148;28;20048;-77
2023/01/11 00:40:36;;;;;;;9.82;1.80;;;;;;;12.68;100.00;101004.38;2086586;28;20493;-77
2023/01/11 00:48:39;;;;;;;12.20;1.90;;;;;;;12.64;100.00;100976.09;2097072;28;20072;-76
2023/01/11 00:50:00;;;;;;;11.55;1.60;;;;;;;12.64;100.00;100985.78;2099913;28;20371;-76
2023/01/11 00:51:22;;;;;;;13.90;1.75;;;;;;;12.62;100.00;100998.13;2094397;28;20875;-76
2023/01/11 00:52:43;;;;;;;13.20;2.13;;;;;;;12.61;100.00;101005.16;2100180;28;20676;-77
2023/01/11 00:54:06;;;;;;;9.23;2.00;;;;;;;12.60;100.00;101013.97;2094708;28;20049;-77
2023/01/11 00:55:30;;;;;;;11.85;1.90;;;;;;;12.62;100.00;101021.94;2100237;28;20505;-77
2023/01/11 00:56:52;;;;;;;11.60;2.38;;;;;;;12.62;100.00;101036.09;2096895;28;20537;-76
2023/01/11 00:58:14;;;;;;;15.95;4.07;;;;;;;12.63;100.00;101036.97;2100155;28;20135;-76
2023/01/11 00:59:38;;;;;;;14.60;4.72;;;;;;;12.65;100.00;101033.47;2094474;28;20076;-76
2023/01/11 01:01:06;;;;;;;13.57;3.45;;;;;;;12.68;100.00;101046.75;2094698;28;20135;-76
2023/01/11 01:02:30;;;;;;;14.30;3.42;;;;;;;12.70;100.00;101042.38;2101767;28;20048;-76
2023/01/11 01:03:53;;;;;;;18.35;4.60;;;;;;;12.72;100.00;101053.88;2094337;28;20123;-76
2023/01/11 01:05:16;;;;;;;13.93;4.97;;;;;;;12.75;100.00;101045.06;2091903;28;20059;-75
2023/01/11 01:06:37;;;;;;;12.98;2.53;;;;;;;12.77;100.00;101057.47;2099881;28;20535;-77
2023/01/11 01:08:00;;;;;;;12.30;2.28;;;;;;;12.78;100.00;101050.41;2096974;28;20361;-75
2023/01/11 01:09:21;;;;;;;13.25;1.65;;;;;;;12.78;100.00;101050.41;2101324;28;20040;-76
2023/01/11 01:10:44;;;;;;;14.23;2.13;;;;;;;12.78;100.00;101048.66;2101185;28;20058;-76
2023/01/11 01:12:07;;;;;;;11.15;1.75;;;;;;;12.82;100.00;101048.66;2105286;28;20109;-76
2023/01/11 01:15:24;;;;;;;12.57;1.52;;;;;;;12.87;100.00;101031.03;2079386;28;20132;-76
2023/01/11 01:16:47;;;;;;;10.35;2.20;;;;;;;12.91;100.00;101025.81;2066208;28;20252;-76
2023/01/11 01:18:11;;;;;;;16.25;2.15;;;;;;;12.92;100.00;101016.09;2064984;28;20053;-77
2023/01/11 01:19:35;;;;;;;12.35;2.30;;;;;;;12.94;100.00;101014.34;2061488;28;20658;-77
2023/01/11 01:20:58;;;;;;;12.00;2.60;;;;;;;12.96;100.00;100999.34;2086460;28;20052;-77
2023/01/11 01:22:19;;;;;;;13.73;2.28;;;;;;;12.97;100.00;100996.72;2093461;28;20099;-76
2023/01/11 01:23:41;;;;;;;12.73;1.92;;;;;;;12.98;100.00;100968.47;2094457;28;20522;-77
2023/01/11 01:25:03;;;;;;;11.50;2.80;;;;;;;13.00;100.00;100988.78;2099041;28;20051;-77
2023/01/11 01:26:25;;;;;;;15.25;3.80;;;;;;;12.97;100.00;100993.19;2097001;28;20048;-77
2023/01/11 01:27:47;;;;;;;17.00;3.35;;;;;;;12.96;100.00;100967.56;2098385;28;20135;-76
2023/01/11 01:29:10;;;;;;;12.02;2.15;;;;;;;12.96;100.00;100954.31;2100068;28;20032;-77
2023/01/11 01:30:32;;;;;;;15.27;2.22;;;;;;;12.95;100.00;100990.50;2105396;28;20143;-77
2023/01/11 01:31:54;;;;;;;14.27;5.07;;;;;;;12.95;100.00;101010.81;2085491;28;20131;-78
2023/01/11 01:33:18;;;;;;;17.23;7.38;;;;;;;12.94;100.00;101011.69;2092017;28;20090;-77
2023/01/11 01:34:41;;;;;;;13.35;3.08;;;;;;;12.95;100.00;101014.38;2094548;28;20115;-77
2023/01/11 01:36:03;;;;;;;9.98;1.92;;;;;;;12.96;100.00;101016.16;2097754;28;20048;-77
2023/01/11 01:37:27;;;;;;;13.07;2.03;;;;;;;12.98;100.00;101014.41;2099998;28;20110;-78
2023/01/11 01:38:48;;;;;;;13.63;2.30;;;;;;;13.01;100.00;101008.22;2101428;28;20048;-77
2023/01/11 01:40:11;;;;;;;13.45;2.90;;;;;;;13.04;100.00;101002.97;2096183;28;20041;-77
2023/01/11 01:41:33;;;;;;;11.52;1.73;;;;;;;13.04;100.00;101005.63;2099957;28;20436;-77
2023/01/11 01:42:56;;;;;;;10.38;2.17;;;;;;;13.07;100.00;101010.94;2096076;28;20115;-77
2023/01/11 01:44:57;;;;;;;12.60;3.22;;;;;;;13.09;100.00;101002.13;2094109;28;20397;-78
2023/01/11 01:46:22;;;;;;;19.48;6.95;;;;;;;13.09;100.00;100990.63;2096403;28;20102;-78
2023/01/11 01:47:46;;;;;;;16.45;5.00;;;;;;;13.11;100.00;100989.78;2078018;28;20050;-78
2023/01/11 01:49:14;;;;;;;13.98;6.15;;;;;;;13.13;100.00;100987.16;2084909;28;20493;-78
2023/01/11 01:50:40;;;;;;;9.57;4.47;;;;;;;13.14;100.00;100989.84;2094808;28;20050;-78
2023/01/11 01:52:03;;;;;;;14.20;5.15;;;;;;;13.16;100.00;100992.50;2086164;28;20528;-77
2023/01/11 01:53:30;;;;;;;14.52;4.43;;;;;;;13.18;100.00;100995.19;2085797;28;20049;-78
2023/01/11 01:54:53;;;;;;;14.48;2.75;;;;;;;13.20;100.00;100988.09;2095265;28;20052;-78
2023/01/11 01:56:20;;;;;;;15.68;5.30;;;;;;;13.22;100.00;100995.22;2091149;28;20048;-78
2023/01/11 01:57:44;;;;;;;15.38;4.35;;;;;;;13.24;100.00;100995.22;2084293;28;20506;-79
2023/01/11 01:59:11;;;;;;;19.90;3.65;;;;;;;13.25;100.00;100982.00;2075228;28;20057;-78
2023/01/11 02:00:34;;;;;;;11.57;2.92;;;;;;;13.27;100.00;100979.34;2082884;28;20060;-78
2023/01/11 02:01:56;;;;;;;14.40;2.58;;;;;;;13.25;100.00;100971.38;2083110;28;20053;-78
2023/01/11 02:03:19;;;;;;;;;;;;;;;13.19;100.00;100963.41;2086312;28;20126;-78
2023/01/11 02:04:46;;;;;;;13.63;1.63;;;;;;;13.18;100.00;100958.97;2092141;28;20086;-79
2023/01/11 02:06:08;;;;;;;13.15;2.75;;;;;;;13.17;100.00;100951.88;2085682;28;20056;-78
2023/01/11 02:07:32;;;;;;;9.90;1.25;;;;;;;13.17;100.00;100951.88;2091185;28;20566;-77
2023/01/11 02:09:01;;;;;;;13.13;1.88;;;;;;;13.18;100.00;100947.47;2083639;28;20048;-77
2023/01/11 02:10:26;;;;;;;16.73;1.85;;;;;;;13.18;100.00;100940.41;2086846;28;20072;-78
2023/01/11 02:11:49;;;;;;;16.25;2.10;;;;;;;13.20;100.00;100935.09;2093829;28;20104;-78
2023/01/11 02:13:13;;;;;;;16.00;2.15;;;;;;;13.18;100.00;100937.75;2087411;28;20053;-79
2023/01/11 02:14:36;;;;;;;10.63;1.58;;;;;;;13.18;100.00;100947.47;2083730;28;20052;-78
2023/01/11 02:16:07;;;;;;;5.55;1.02;;;;;;;13.19;100.00;100950.13;2082693;28;20044;-78
2023/01/11 02:17:29;;;;;;;9.65;1.77;;;;;;;13.20;100.00;100946.59;2092773;28;20133;-78
2023/01/11 02:18:51;;;;;;;12.95;1.98;;;;;;;13.21;100.00;100936.88;2080199;28;20430;-79
2023/01/11 02:20:42;;;;;;;11.82;1.80;;;;;;;13.21;100.00;100934.22;2090298;28;20032;-78
2023/01/11 02:22:29;;;;;;;13.32;1.77;;;;;;;13.19;100.00;100928.03;2096288;28;20048;-78
2023/01/11 02:24:17;;;;;;;17.08;2.85;;;;;;;13.20;100.00;100935.09;2082711;28;20162;-79
2023/01/11 02:26:27;;;;;;;13.27;3.53;;;;;;;13.19;100.00;100934.22;2095417;28;20106;-78
2023/01/11 02:28:11;;;;;;;15.15;3.00;;;;;;;13.20;100.00;100945.69;2095693;28;20090;-79
2023/01/11 02:29:44;;;;;;;9.63;2.08;;;;;;;13.22;100.00;100941.31;2091747;28;20052;-78
2023/01/11 02:31:11;;;;;;;10.10;1.65;;;;;;;13.21;100.00;100937.75;2095464;28;20109;-78
2023/01/11 02:32:42;;;;;;;16.15;2.45;;;;;;;13.24;100.00;100939.56;2085571;28;20087;-79
2023/01/11 02:34:19;;;;;;;11.23;2.58;;;;;;;13.25;100.00;100944.88;2093046;28;20052;-79
2023/01/11 02:35:56;;;;;;;23.42;14.27;;;;;;;13.25;100.00;100933.38;2096025;28;20048;-78
2023/01/11 02:37:26;;;;;;;33.95;30.33;;;;;;;13.24;100.00;100921.91;2095978;28;20040;-79
2023/01/11 02:38:58;;;;;;;22.83;11.55;;;;;;;13.27;100.00;100921.00;2094923;28;20533;-79
2023/01/11 02:40:25;;;;;;;32.88;25.95;;;;;;;13.27;100.00;100915.69;2095026;28;20044;-80
2023/01/11 02:45:41;;;;;;;27.67;14.45;;;;;;;13.25;100.00;100917.47;2099582;28;20505;-79
2023/01/11 02:47:08;;;;;;;16.20;7.38;;;;;;;13.23;100.00;100924.53;2091479;28;20063;-81
2023/01/11 02:48:38;;;;;;;9.68;3.38;;;;;;;13.21;100.00;100924.50;2094840;28;20050;-81
2023/01/11 02:50:06;;;;;;;11.57;5.05;;;;;;;13.18;100.00;100920.97;2095123;28;20067;-80
2023/01/11 02:51:39;;;;;;;15.40;4.93;;;;;;;13.14;100.00;100922.69;2098553;28;20036;-81
2023/01/11 02:53:08;;;;;;;12.73;2.85;;;;;;;13.13;100.00;100926.19;2103758;28;20044;-80
2023/01/11 02:54:33;;;;;;;12.75;3.83;;;;;;;13.10;100.00;100927.06;2102647;28;20066;-81
2023/01/11 02:55:58;;;;;;;10.20;3.70;;;;;;;13.07;100.00;100924.38;2102462;28;20085;-81
2023/01/11 02:57:23;;;;;;;14.57;6.35;;;;;;;13.07;100.00;100928.78;2102734;28;20103;-81
2023/01/11 02:58:49;;;;;;;17.02;5.20;;;;;;;13.05;100.00;100925.25;2102838;28;20044;-81
2023/01/11 03:00:14;;;;;;;17.73;3.45;;;;;;;13.03;100.00;100924.34;2094625;28;20060;-82
2023/01/11 03:01:47;;;;;;;12.10;3.90;;;;;;;13.01;100.00;100926.97;2100361;28;20056;-82
2023/01/11 03:03:15;;;;;;;11.65;3.35;;;;;;;12.99;100.00;100923.44;2096477;28;20425;-81
2023/01/11 03:04:38;;;;;;;13.73;2.95;;;;;;;12.99;100.00;100919.91;2099404;28;20042;-80
2023/01/11 03:06:04;;;;;;;17.05;3.03;;;;;;;13.00;100.00;100925.19;2104934;28;20138;-81
2023/01/11 03:07:39;;;;;;;15.90;3.40;;;;;;;12.99;100.00;100918.13;2102542;28;20067;-81
2023/01/11 03:09:14;;;;;;;11.00;2.25;;;;;;;12.99;100.00;100922.53;2104133;28;20596;-81
2023/01/11 03:10:57;;;;;;;16.42;2.45;;;;;;;12.98;100.00;100915.47;2104265;28;20519;-81
2023/01/11 03:12:53;;;;;;;7.78;1.58;;;;;;;12.95;100.00;100915.44;2096718;28;20425;-81
2023/01/11 03:14:24;;;;;;;15.20;4.07;;;;;;;12.90;100.00;100907.44;2098190;28;20047;-81
2023/01/11 03:16:10;;;;;;;12.90;3.33;;;;;;;12.88;100.00;100910.94;2103421;28;20277;-81
2023/01/11 03:17:44;;;;;;;12.32;2.25;;;;;;;12.86;100.00;100907.41;2104283;28;20040;-80
2023/01/11 03:19:17;;;;;;;14.68;2.30;;;;;;;12.85;100.00;100916.25;2096747;28;20052;-81
2023/01/11 03:20:45;;;;;;;16.20;2.45;;;;;;;12.84;100.00;100914.47;2102181;28;20055;-81
2023/01/11 03:22:14;;;;;;;14.07;4.47;;;;;;;12.83;100.00;100912.69;2102999;28;20055;-82
2023/01/11 03:23:48;;;;;;;13.75;6.82;;;;;;;12.82;100.00;100910.91;2099022;28;20147;-81
2023/01/11 03:25:17;;;;;;;17.48;6.38;;;;;;;12.81;100.00;100914.41;2103973;28;20432;-82
2023/01/11 03:26:53;;;;;;;18.02;7.88;;;;;;;12.78;100.00;100912.66;2101178;28;20145;-82
2023/01/11 03:28:24;;;;;;;14.80;7.18;;;;;;;12.77;100.00;100917.06;2102198;28;20100;-83
2023/01/11 03:29:53;;;;;;;18.98;5.47;;;;;;;12.76;100.00;100917.91;2102980;28;20105;-84
2023/01/11 03:31:20;;;;;;;13.48;3.63;;;;;;;12.77;100.00;100918.81;2103080;28;20089;-83
2023/01/11 03:32:48;;;;;;;10.60;2.88;;;;;;;12.75;100.00;100924.09;2098217;28;20056;-83
2023/01/11 03:34:16;;;;;;;13.07;2.92;;;;;;;12.73;100.00;100920.53;2094870;28;20492;-83
2023/01/11 03:35:46;;;;;;;12.85;2.17;;;;;;;12.72;100.00;100918.78;2101704;28;20045;-83
2023/01/11 03:37:13;;;;;;;9.50;1.90;;;;;;;12.73;100.00;100922.31;2103299;28;20101;-82
2023/01/11 03:38:41;;;;;;;11.15;1.90;;;;;;;12.72;100.00;100926.72;2103838;28;20054;-84
2023/01/11 03:40:09;;;;;;;8.20;1.30;;;;;;;12.72;100.00;100931.13;2103261;28;20133;-84
2023/01/11 03:41:36;;;;;;;8.20;1.65;;;;;;;12.69;100.00;100934.63;2088343;28;20037;-83
2023/01/11 03:43:10;;;;;;;7.60;1.80;;;;;;;12.70;100.00;100935.53;2096633;28;20078;-83
2023/01/11 03:44:39;;;;;;;13.35;3.05;;;;;;;12.70;100.00;100939.06;2105344;28;20208;-83
2023/01/11 03:46:07;;;;;;;13.27;4.88;;;;;;;12.72;100.00;100941.72;2105056;28;20508;-84
2023/01/11 03:47:31;;;;;;;19.70;7.88;;;;;;;12.73;100.00;100941.72;2102998;28;20460;-83
2023/01/11 03:48:59;;;;;;;13.35;3.55;;;;;;;12.74;100.00;100929.38;2102774;28;20275;-83
2023/01/11 03:50:22;;;;;;;13.57;3.63;;;;;;;12.77;100.00;100938.25;2097931;28;20071;-82
2023/01/11 03:51:46;;;;;;;12.63;4.78;;;;;;;12.81;100.00;100936.50;2103446;28;20048;-83
2023/01/11 03:53:10;;;;;;;12.15;4.13;;;;;;;12.84;100.00;100935.66;2106566;28;20044;-83
2023/01/11 03:54:34;;;;;;;13.65;4.15;;;;;;;12.87;100.00;100936.56;2102657;28;20051;-84
2023/01/11 03:55:58;;;;;;;10.30;3.88;;;;;;;12.89;100.00;100932.16;2097954;28;20033;-83
2023/01/11 03:57:24;;;;;;;11.73;3.47;;;;;;;12.93;100.00;100933.09;2101370;28;20048;-83
2023/01/11 03:58:47;;;;;;;18.20;5.10;;;;;;;12.93;100.00;100936.59;2104363;28;20040;-82
2023/01/11 04:00:10;;;;;;;13.65;4.38;;;;;;;12.94;100.00;100937.50;2098022;28;20440;-83
2023/01/11 04:01:34;;;;;;;14.20;4.13;;;;;;;12.95;100.00;100939.28;2106489;28;20044;-83
2023/01/11 04:02:55;;;;;;;9.50;2.78;;;;;;;12.92;100.00;100933.97;2097115;28;20044;-82
2023/01/11 04:04:17;;;;;;;10.93;3.42;;;;;;;12.87;100.00;100933.00;2095365;28;20044;-83
2023/01/11 04:05:42;;;;;;;11.55;3.08;;;;;;;12.85;100.00;100926.84;2098164;28;20083;-82
2023/01/11 04:07:04;;;;;;;10.27;3.25;;;;;;;12.85;100.00;100924.19;2099198;28;20421;-82
2023/01/11 04:08:26;;;;;;;11.68;4.28;;;;;;;12.85;100.00;100932.13;2103686;28;20040;-84
2023/01/11 04:09:48;;;;;;;14.68;5.55;;;;;;;12.86;100.00;100928.63;2103625;28;20121;-82
2023/01/11 04:11:09;;;;;;;14.65;4.25;;;;;;;12.86;100.00;100928.63;2103814;28;20082;-82
2023/01/11 04:12:32;;;;;;;12.57;2.90;;;;;;;12.85;100.00;100933.03;2102454;28;20044;-82
2023/01/11 04:13:54;;;;;;;13.02;3.88;;;;;;;12.85;100.00;100929.47;2101909;28;20079;-82
2023/01/11 04:15:17;;;;;;;15.27;4.72;;;;;;;12.86;100.00;100923.31;2103741;28;20093;-83
2023/01/11 04:16:40;;;;;;;14.07;5.10;;;;;;;12.86;100.00;100920.66;2102572;28;21086;-82
2023/01/11 04:18:04;;;;;;;10.93;3.35;;;;;;;12.85;100.00;100924.19;2093836;28;20061;-85
2023/01/11 04:19:26;;;;;;;17.13;6.40;;;;;;;12.85;100.00;100930.38;2095786;28;20053;-84
2023/01/11 04:20:48;;;;;;;19.02;6.38;;;;;;;12.84;100.00;100933.91;2100818;28;20064;-83
2023/01/11 04:22:09;;;;;;;12.00;4.45;;;;;;;12.82;100.00;100937.38;2106280;28;20048;-84
2023/01/11 04:23:31;;;;;;;10.35;3.38;;;;;;;12.72;100.00;100939.97;2095318;28;20579;-84
2023/01/11 04:24:54;;;;;;;14.40;4.32;;;;;;;12.66;100.00;100933.72;2095226;28;20056;-84
2023/01/11 04:26:16;;;;;;;11.85;3.30;;;;;;;12.63;100.00;100938.97;2097468;28;20044;-84
2023/01/11 04:27:39;;;;;;;12.15;2.83;;;;;;;12.59;100.00;100932.78;2097595;28;20044;-83
2023/01/11 04:29:01;;;;;;;10.45;2.40;;;;;;;12.59;100.00;100931.88;2093045;28;20048;-82
2023/01/11 04:30:23;;;;;;;9.68;2.30;;;;;;;12.54;100.00;100937.13;2092902;28;20047;-82
2023/01/11 04:31:47;;;;;;;12.57;3.90;;;;;;;12.50;100.00;100937.97;2100836;28;20064;-82
2023/01/11 04:33:12;;;;;;;9.70;3.28;;;;;;;12.50;100.00;100945.91;2102787;28;20052;-81
2023/01/11 04:34:34;;;;;;;13.57;2.13;;;;;;;12.51;100.00;100947.69;2103755;28;20067;-82
2023/01/11 04:35:55;;;;;;;8.82;1.98;;;;;;;12.54;100.00;100952.13;2103606;28;20112;-82
2023/01/11 04:37:17;;;;;;;9.63;2.40;;;;;;;12.54;100.00;100942.41;2101999;28;20056;-83
2023/01/11 04:38:39;;;;;;;10.15;2.25;;;;;;;12.53;100.00;100943.31;2103702;28;20044;-83
2023/01/11 04:40:01;;;;;;;6.65;1.75;;;;;;;12.50;100.00;100939.72;2105833;28;20059;-83
2023/01/11 04:43:03;;;;;;;19.65;10.70;;;;;;;12.49;100.00;100943.25;2106030;28;20036;-83
2023/01/11 04:44:25;;;;;;;15.30;12.13;;;;;;;12.49;100.00;100946.78;2106408;28;20056;-83
2023/01/11 04:45:48;;;;;;;13.68;7.50;;;;;;;12.41;100.00;100936.97;2103240;28;20052;-83
2023/01/11 04:47:12;;;;;;;12.40;8.38;;;;;;;12.32;100.00;100946.59;2102414;28;20135;-83
2023/01/11 04:48:34;;;;;;;19.85;15.65;;;;;;;12.28;100.00;100943.88;2103516;28;20501;-83
2023/01/11 04:49:56;;;;;;;14.40;10.32;;;;;;;12.27;100.00;100944.78;2103144;28;20143;-83
2023/01/11 04:51:18;;;;;;;19.67;17.65;;;;;;;12.30;100.00;100942.16;2111866;28;20080;-83
2023/01/11 04:52:40;;;;;;;19.25;16.45;;;;;;;12.32;100.00;100928.06;2105887;28;20101;-83
2023/01/11 04:54:01;;;;;;;11.32;6.03;;;;;;;12.37;100.00;100930.75;2111687;28;20059;-84
2023/01/11 04:55:24;;;;;;;12.38;4.20;;;;;;;12.41;100.00;100924.63;2097340;28;20044;-84
2023/01/11 04:56:45;;;;;;;9.02;2.55;;;;;;;12.47;100.00;100918.53;2107753;28;20048;-83
2023/01/11 04:58:07;;;;;;;8.82;3.47;;;;;;;12.49;100.00;100915.00;2089280;28;20073;-83
2023/01/11 04:59:31;;;;;;;10.90;4.03;;;;;;;12.50;100.00;100907.94;2101336;28;20040;-84
2023/01/11 05:00:53;;;;;;;18.50;9.63;;;;;;;12.48;100.00;100905.28;2097654;28;20143;-83
2023/01/11 05:02:17;;;;;;;13.85;9.02;;;;;;;12.49;100.00;100916.75;2094443;28;20052;-83
2023/01/11 05:03:40;;;;;;;18.50;12.88;;;;;;;12.44;100.00;100923.78;2100541;28;20068;-84
2023/01/11 05:05:01;;;;;;;21.67;14.18;;;;;;;12.37;100.00;100922.81;2103133;28;20040;-83
2023/01/11 05:06:24;;;;;;;15.07;9.93;;;;;;;12.29;100.00;100932.44;2111694;28;20044;-84
2023/01/11 05:07:48;;;;;;;16.42;10.05;;;;;;;12.24;100.00;100936.78;2097180;28;20413;-83
2023/01/11 05:09:14;;;;;;;13.35;9.05;;;;;;;12.20;100.00;100941.19;2102424;28;20501;-83
2023/01/11 05:10:35;;;;;;;13.52;9.88;;;;;;;12.18;100.00;100937.63;2094831;28;20033;-84
2023/01/11 05:11:58;;;;;;;11.15;5.43;;;;;;;12.18;100.00;100932.31;2094946;28;20076;-85
2023/01/11 05:13:19;;;;;;;10.43;2.85;;;;;;;12.21;100.00;100932.34;2100540;28;20520;-86
2023/01/11 05:14:42;;;;;;;17.05;10.82;;;;;;;12.22;100.00;100936.78;2102596;28;20079;-87
2023/01/11 05:16:06;;;;;;;10.95;5.15;;;;;;;12.23;100.00;100922.66;2111876;28;20040;-86
2023/01/11 05:17:30;;;;;;;;;;;;;;;12.23;100.00;100927.06;2095354;28;20040;-85
2023/01/11 05:18:52;;;;;;;16.77;5.32;;;;;;;12.23;100.00;100906.78;2092548;28;20317;-85
2023/01/11 05:20:15;;;;;;;14.38;8.50;;;;;;;12.28;100.00;100902.44;2103008;28;20055;-85
2023/01/11 05:21:38;;;;;;;15.90;7.97;;;;;;;12.35;100.00;100888.38;2094762;28;20044;-85
2023/01/11 05:23:01;;;;;;;17.98;7.72;;;;;;;12.41;100.00;100887.56;2100661;28;20040;-86
2023/01/11 05:24:23;;;;;;;22.80;15.48;;;;;;;12.47;100.00;100892.06;2102841;28;20074;-85
2023/01/11 05:25:46;;;;;;;25.05;17.95;;;;;;;12.51;100.00;100888.56;2111279;28;20059;-85
2023/01/11 05:27:08;;;;;;;22.27;13.15;;;;;;;12.53;100.00;100885.06;2104002;28;20044;-84
2023/01/11 05:28:30;;;;;;;18.67;7.68;;;;;;;12.56;100.00;100882.41;2103290;28;20048;-83
2023/01/11 05:29:52;;;;;;;12.52;4.32;;;;;;;12.57;100.00;100876.25;2102292;28;20059;-83
2023/01/11 05:31:14;;;;;;;11.48;4.32;;;;;;;12.55;100.00;100871.81;2105949;28;20055;-86
2023/01/11 05:32:38;;;;;;;11.07;2.83;;;;;;;12.56;100.00;100882.41;2111405;28;20694;-86
2023/01/11 05:34:00;;;;;;;12.10;2.90;;;;;;;12.54;100.00;100900.03;2105578;28;20101;-84
2023/01/11 05:35:22;;;;;;;17.67;5.50;;;;;;;12.52;100.00;100927.41;2103063;28;20098;-84
2023/01/11 05:36:43;;;;;;;11.73;3.15;;;;;;;12.53;100.00;100935.38;2111554;28;20058;-85
2023/01/11 05:38:05;;;;;;;15.70;5.63;;;;;;;12.56;100.00;100935.38;2099760;28;20877;-85
2023/01/11 05:39:28;;;;;;;20.00;5.50;;;;;;;12.61;100.00;100949.56;2103025;28;20452;-85
2023/01/11 05:40:53;;;;;;;12.88;4.63;;;;;;;12.64;100.00;100949.59;2094939;28;20037;-82
2023/01/11 05:42:16;;;;;;;14.25;4.13;;;;;;;12.65;100.00;100951.38;2101160;28;20048;-85
2023/01/11 05:45:27;;;;;;;11.40;3.80;;;;;;;12.66;100.00;100960.22;2103090;28;20051;-86
2023/01/11 05:45:31;;;;;;;11.40;4.55;;;;;;;12.66;100.00;100953.16;2104358;28;20144;-85
2023/01/11 05:46:52;;;;;;;10.13;2.67;;;;;;;12.67;100.00;100936.38;2102487;28;20079;-83
2023/01/11 05:48:16;;;;;;;20.40;6.43;;;;;;;12.70;100.00;100952.31;2093508;28;20044;-82
2023/01/11 05:49:38;;;;;;;12.85;6.25;;;;;;;12.71;100.00;100939.94;2099198;28;20048;-84
2023/01/11 05:50:59;;;;;;;13.48;4.88;;;;;;;12.73;100.00;100939.06;2102144;28;20051;-84
2023/01/11 05:52:22;;;;;;;20.92;5.85;;;;;;;12.76;100.00;100931.16;2102440;28;20036;-85
2023/01/11 05:53:43;;;;;;;19.95;8.60;;;;;;;12.78;100.00;100924.13;2094641;28;20117;-84
2023/01/11 05:55:07;;;;;;;11.00;4.00;;;;;;;12.76;100.00;100924.97;2101748;28;20449;-84
2023/01/11 05:56:28;;;;;;;13.98;5.00;;;;;;;12.74;100.00;100924.06;2099854;28;20046;-84
2023/01/11 05:57:50;;;;;;;11.75;4.53;;;;;;;12.72;100.00;100932.03;2100398;28;20139;-84
2023/01/11 05:59:13;;;;;;;11.07;2.78;;;;;;;12.71;100.00;100932.91;2103089;28;20051;-84
2023/01/11 06:00:35;;;;;;;12.77;5.43;;;;;;;12.72;100.00;100932.03;2093771;28;20033;-84
2023/01/11 06:01:57;;;;;;;12.32;3.45;;;;;;;12.73;100.00;100940.88;2100101;28;20429;-85
2023/01/11 06:03:21;;;;;;;11.95;4.38;;;;;;;12.73;100.00;100939.06;2105483;28;20512;-83
2023/01/11 06:04:43;;;;;;;12.30;5.97;;;;;;;12.71;100.00;100932.00;2102521;28;20464;-84
2023/01/11 06:06:05;;;;;;;12.57;4.50;;;;;;;12.71;100.00;100940.84;2101333;28;20591;-84
2023/01/11 06:07:28;;;;;;;13.00;3.38;;;;;;;12.72;100.00;100934.69;2100916;28;20055;-83
2023/01/11 06:08:49;;;;;;;13.73;2.58;;;;;;;12.74;100.00;100924.97;2104770;28;20043;-84
2023/01/11 06:10:11;;;;;;;6.55;2.10;;;;;;;12.75;100.00;100924.09;2105082;28;20052;-85
2023/01/11 06:11:34;;;;;;;10.68;2.42;;;;;;;12.77;100.00;100919.72;2101975;28;20635;-84
2023/01/11 06:13:25;;;;;;;6.32;1.88;;;;;;;12.80;100.00;100915.31;2100594;28;20560;-85
2023/01/11 06:14:37;;;;;;;11.60;2.00;;;;;;;12.83;100.00;100910.91;2105481;28;20459;-85
2023/01/11 06:16:02;;;;;;;13.07;3.03;;;;;;;12.86;100.00;100902.13;2101323;28;20115;-85
2023/01/11 06:17:24;;;;;;;9.60;2.63;;;;;;;12.85;100.00;100908.28;2096462;28;20052;-85
2023/01/11 06:18:49;;;;;;;11.00;2.40;;;;;;;12.87;100.00;100903.88;2099879;28;20112;-85
2023/01/11 06:20:12;;;;;;;8.35;2.75;;;;;;;12.90;100.00;100899.50;2103089;28;20060;-86
2023/01/11 06:21:35;;;;;;;9.68;2.17;;;;;;;12.91;100.00;100918.94;2102216;28;20048;-85
2023/01/11 06:22:56;;;;;;;7.22;1.85;;;;;;;12.89;100.00;100923.31;2102820;28;20036;-86
2023/01/11 06:24:18;;;;;;;8.75;2.92;;;;;;;12.92;100.00;100929.56;2097414;28;20113;-86
2023/01/11 06:25:39;;;;;;;7.80;2.05;;;;;;;13.01;100.00;100926.06;2103553;28;20132;-85
2023/01/11 06:27:02;;;;;;;9.13;1.77;;;;;;;13.09;100.00;100925.28;2102221;28;20055;-86
2023/01/11 06:28:24;;;;;;;11.85;2.20;;;;;;;13.20;100.00;100924.50;2100412;28;20057;-86
2023/01/11 06:29:46;;;;;;;5.47;2.35;;;;;;;13.34;100.00;100928.13;2101934;28;20048;-86
2023/01/11 06:31:09;;;;;;;5.88;1.45;;;;;;;13.47;100.00;100933.53;2101903;28;20059;-86
2023/01/11 06:32:31;;;;;;;9.52;2.90;;;;;;;13.56;100.00;100938.00;2102636;28;20051;-86
2023/01/11 06:33:55;;;;;;;6.28;1.98;;;;;;;13.65;100.00;100935.44;2104434;28;20032;-86
2023/01/11 06:35:17;;;;;;;6.40;1.70;;;;;;;13.72;100.00;100934.56;2096369;28;20049;-87
2023/01/11 06:36:39;;;;;;;13.55;3.88;;;;;;;13.80;100.00;100924.88;2100103;28;20155;-85
2023/01/11 06:38:02;;;;;;;11.75;4.22;;;;;;;13.91;100.00;100927.59;2096989;28;20045;-85
2023/01/11 06:39:24;;;;;;;9.30;2.42;;;;;;;13.99;100.00;100931.16;2107852;28;20134;-86
2023/01/11 06:40:52;;;;;;;8.65;3.75;;;;;;;14.08;100.00;100922.34;2105118;28;20051;-86